Time;durP1;ratioP1;P1;durP2;ratioP2;P2;SDS_P1;SDS_P2;PMS_P1;PMS_P2;Temp;Humidity;BMP_temperature;BMP_pressure;BME280_temperature;BME280_humidity;BME280_pressure;Samples;Min_cycle;Max_cycle;Signal;HPM_P1;HPM_P2
2021/07/06 04:35:14;;;;;;;5.03;4.53;;;18.20;98.30;;;;;;5157642;22;20470;-83
2021/07/06 04:37:34;;;;;;;4.80;4.40;;;18.20;98.30;;;;;;5167884;23;20438;-82
2021/07/06 04:40:01;;;;;;;5.33;4.83;;;18.30;98.30;;;;;;5166437;23;20978;-83
2021/07/06 04:42:28;;;;;;;4.90;4.50;;;18.30;98.30;;;;;;5175807;23;20420;-82
2021/07/06 04:44:39;;;;;;;4.90;4.50;;;18.30;98.30;;;;;;5174139;22;20447;-83
2021/07/06 04:49:21;;;;;;;5.60;4.90;;;18.40;98.30;;;;;;5167642;23;20912;-83
2021/07/06 04:54:23;;;;;;;5.03;4.53;;;18.30;98.30;;;;;;5165139;22;20457;-83
2021/07/06 04:56:29;;;;;;;8.60;5.00;;;18.40;98.30;;;;;;5173777;23;20492;-83
2021/07/06 04:58:38;;;;;;;5.10;4.70;;;18.40;98.30;;;;;;5166502;23;20407;-83
2021/07/06 05:01:07;;;;;;;5.50;5.00;;;18.40;98.30;;;;;;5176602;23;20457;-82
2021/07/06 05:03:16;;;;;;;5.77;4.80;;;18.40;98.30;;;;;;5176422;23;20424;-83
2021/07/06 05:12:38;;;;;;;5.60;4.60;;;18.50;98.30;;;;;;5166912;23;20515;-82
2021/07/06 05:15:22;;;;;;;5.80;5.17;;;18.60;98.30;;;;;;5174809;22;20454;-82
2021/07/06 05:21:05;;;;;;;6.80;5.30;;;18.70;98.30;;;;;;5157998;23;20459;-83
2021/07/06 05:23:40;;;;;;;5.73;4.73;;;18.70;98.30;;;;;;5167060;23;20507;-83
2021/07/06 05:25:49;;;;;;;7.40;5.83;;;18.70;98.30;;;;;;5175308;23;20424;-83
2021/07/06 05:27:55;;;;;;;10.23;6.07;;;18.80;98.30;;;;;;5174360;23;20954;-82
2021/07/06 05:30:14;;;;;;;5.97;5.00;;;18.90;98.30;;;;;;5175016;23;20802;-81
2021/07/06 05:32:27;;;;;;;6.20;5.00;;;19.00;98.30;;;;;;5176041;23;20403;-82
2021/07/06 05:34:54;;;;;;;5.50;5.10;;;19.00;98.30;;;;;;5148078;23;21228;-82
2021/07/06 05:39:58;;;;;;;5.20;4.80;;;19.10;98.30;;;;;;4242686;27;20539;-83
2021/07/06 06:41:56;;;;;;;5.53;4.93;;;20.00;98.30;;;;;;4226166;28;20487;-81
2021/07/06 06:44:00;;;;;;;4.80;4.40;;;20.20;98.30;;;;;;4223537;28;20542;-81
2021/07/06 06:46:20;;;;;;;5.37;4.43;;;20.10;98.30;;;;;;4224484;28;20968;-80
2021/07/06 06:48:30;;;;;;;5.07;4.67;;;20.20;98.30;;;;;;4225264;28;20537;-81
2021/07/06 06:50:44;;;;;;;5.03;4.63;;;20.20;98.30;;;;;;4216238;28;21394;-81
2021/07/06 06:52:53;;;;;;;5.20;4.30;;;20.20;98.30;;;;;;4214313;28;20952;-81
2021/07/06 06:55:56;;;;;;;5.50;4.47;;;20.30;98.30;;;;;;4208288;28;20489;-81
2021/07/06 06:58:04;;;;;;;5.10;4.70;;;20.40;98.30;;;;;;4212660;28;20466;-81
2021/07/06 07:08:44;;;;;;;4.63;4.23;;;20.70;98.30;;;;;;4193499;28;20684;-82
2021/07/06 07:10:52;;;;;;;4.60;4.20;;;20.70;98.30;;;;;;4194357;28;20876;-81
2021/07/06 07:13:05;;;;;;;6.07;4.23;;;20.90;98.30;;;;;;4194752;28;20474;-82
2021/07/06 07:15:37;;;;;;;4.40;4.00;;;20.90;98.30;;;;;;4194454;28;20584;-81
2021/07/06 07:17:42;;;;;;;7.30;4.87;;;21.00;98.30;;;;;;4193625;28;20858;-80
2021/07/06 07:19:45;;;;;;;4.10;3.70;;;21.00;98.30;;;;;;4193821;28;20518;-82
2021/07/06 07:21:48;;;;;;;4.13;3.83;;;21.00;98.30;;;;;;4194367;28;20459;-82
2021/07/06 07:23:52;;;;;;;4.10;3.70;;;21.10;98.30;;;;;;4194531;28;21043;-82
2021/07/06 07:25:55;;;;;;;5.17;3.67;;;21.10;98.30;;;;;;4193949;28;20467;-82
2021/07/06 07:27:58;;;;;;;4.20;3.80;;;21.20;98.30;;;;;;4194233;28;20479;-81
2021/07/06 07:30:03;;;;;;;5.00;4.00;;;21.30;98.30;;;;;;4195507;28;20459;-81
2021/07/06 07:32:07;;;;;;;3.83;3.40;;;21.30;98.30;;;;;;4212895;28;20470;-81
2021/07/06 07:34:10;;;;;;;3.80;3.50;;;21.40;98.30;;;;;;4213315;28;20489;-82
2021/07/06 07:36:13;;;;;;;4.50;3.73;;;21.40;98.30;;;;;;4214133;28;20472;-81
2021/07/06 07:38:16;;;;;;;3.67;3.37;;;21.30;98.30;;;;;;4213253;28;20461;-81
2021/07/06 07:40:20;;;;;;;3.80;3.50;;;21.20;98.30;;;;;;4213775;28;20465;-81
2021/07/06 07:42:23;;;;;;;3.93;3.63;;;21.30;98.30;;;;;;4214456;28;20474;-81
2021/07/06 07:44:26;;;;;;;4.63;3.33;;;21.30;98.30;;;;;;4214611;28;20485;-81
2021/07/06 07:46:30;;;;;;;5.40;3.83;;;21.50;98.30;;;;;;4215001;28;20965;-81
2021/07/06 07:48:33;;;;;;;4.80;3.43;;;21.60;98.30;;;;;;4216244;28;20492;-82
2021/07/06 07:50:36;;;;;;;6.60;3.17;;;21.70;98.30;;;;;;4216858;28;20477;-80
2021/07/06 07:52:39;;;;;;;4.10;3.70;;;21.80;98.30;;;;;;4216768;28;20841;-82
2021/07/06 07:54:42;;;;;;;5.30;3.83;;;21.70;98.30;;;;;;4215421;28;20490;-81
2021/07/06 07:56:45;;;;;;;7.60;3.60;;;21.80;98.30;;;;;;4213434;28;20466;-81
2021/07/06 07:58:48;;;;;;;7.00;4.00;;;21.90;98.30;;;;;;4213108;28;20834;-82
2021/07/06 08:00:51;;;;;;;4.27;3.37;;;22.00;98.30;;;;;;4213014;28;20474;-81
2021/07/06 08:02:58;;;;;;;6.60;3.33;;;22.10;98.30;;;;;;4212863;28;20476;-82
2021/07/06 08:05:01;;;;;;;3.70;3.17;;;22.20;98.30;;;;;;4213295;28;20482;-81
2021/07/06 08:07:04;;;;;;;9.00;3.83;;;22.30;98.30;;;;;;4213685;28;20466;-82
2021/07/06 08:09:08;;;;;;;11.97;4.10;;;22.30;98.30;;;;;;4213625;28;20922;-82
2021/07/06 08:11:11;;;;;;;6.87;4.40;;;22.40;98.30;;;;;;4213528;28;20461;-82
2021/07/06 08:13:16;;;;;;;5.20;3.20;;;22.50;98.30;;;;;;4212296;28;20466;-82
2021/07/06 08:15:19;;;;;;;5.70;3.10;;;22.60;98.30;;;;;;4213057;28;20501;-81
2021/07/06 08:17:22;;;;;;;3.70;3.33;;;22.60;98.30;;;;;;4213296;28;20477;-82
2021/07/06 08:19:26;;;;;;;5.20;3.00;;;22.60;98.30;;;;;;4212861;28;20494;-82
2021/07/06 08:21:29;;;;;;;4.77;3.60;;;22.70;98.30;;;;;;4212863;28;20523;-81
2021/07/06 08:23:32;;;;;;;3.50;3.20;;;22.80;98.30;;;;;;4212297;28;20465;-81
2021/07/06 08:25:35;;;;;;;3.73;3.13;;;22.90;98.30;;;;;;4212713;28;20493;-82
2021/07/06 08:27:38;;;;;;;3.20;2.90;;;22.90;98.30;;;;;;4212757;28;20473;-81
2021/07/06 08:29:41;;;;;;;3.20;2.90;;;23.00;98.30;;;;;;4211218;28;20466;-81
2021/07/06 08:31:44;;;;;;;3.20;2.90;;;23.10;98.30;;;;;;4212687;28;20466;-81
2021/07/06 08:33:47;;;;;;;3.83;3.37;;;23.10;98.30;;;;;;4212816;28;20501;-82
2021/07/06 08:35:51;;;;;;;4.33;3.13;;;23.20;98.30;;;;;;4211979;28;20561;-80
2021/07/06 08:37:54;;;;;;;3.60;3.07;;;23.40;98.30;;;;;;4212795;28;20556;-81
2021/07/06 08:39:58;;;;;;;4.10;3.13;;;23.50;98.30;;;;;;4214329;28;20512;-82
2021/07/06 08:42:01;;;;;;;3.10;2.70;;;23.70;98.30;;;;;;4220736;28;20477;-82
2021/07/06 08:44:05;;;;;;;3.93;2.80;;;23.80;98.30;;;;;;4214372;28;20501;-82
2021/07/06 08:46:08;;;;;;;3.27;2.97;;;23.80;98.30;;;;;;4211867;28;20541;-82
2021/07/06 08:48:12;;;;;;;3.50;3.00;;;23.90;98.30;;;;;;4212960;28;20535;-81
2021/07/06 08:50:15;;;;;;;3.13;2.90;;;24.00;98.30;;;;;;4211714;28;20512;-82
2021/07/06 08:52:20;;;;;;;4.00;2.87;;;24.10;98.30;;;;;;4212033;28;20465;-82
2021/07/06 08:54:23;;;;;;;3.37;2.93;;;24.30;98.30;;;;;;4212306;28;20525;-81
2021/07/06 08:56:26;;;;;;;4.20;2.70;;;24.50;98.30;;;;;;4212676;28;20810;-82
2021/07/06 08:58:29;;;;;;;3.27;2.87;;;24.50;98.30;;;;;;4211346;28;20937;-82
2021/07/06 09:00:33;;;;;;;3.90;2.70;;;24.30;98.30;;;;;;4213162;28;20493;-82
2021/07/06 09:02:39;;;;;;;4.87;3.07;;;24.30;98.30;;;;;;4212959;28;21059;-81
2021/07/06 09:04:46;;;;;;;3.10;2.90;;;24.10;98.30;;;;;;4212618;28;20492;-81
2021/07/06 09:06:55;;;;;;;3.23;3.03;;;24.10;98.30;;;;;;4212869;28;20456;-81
2021/07/06 09:09:19;;;;;;;2.80;2.60;;;24.10;98.30;;;;;;4212199;28;20536;-82
2021/07/06 09:11:22;;;;;;;3.70;2.97;;;24.00;98.30;;;;;;4212436;28;20633;-81
2021/07/06 09:13:30;;;;;;;4.13;2.80;;;24.00;98.30;;;;;;4211653;28;20983;-82
2021/07/06 09:15:33;;;;;;;4.80;3.20;;;24.10;98.30;;;;;;4212217;28;20866;-81
2021/07/06 09:17:37;;;;;;;4.20;3.13;;;24.10;98.30;;;;;;4213153;28;20581;-82
2021/07/06 09:19:41;;;;;;;3.93;3.40;;;24.10;98.30;;;;;;4212076;28;20847;-82
2021/07/06 09:21:45;;;;;;;3.63;3.30;;;24.00;98.30;;;;;;4211653;28;20466;-82
2021/07/06 09:23:49;;;;;;;3.50;3.20;;;23.80;98.30;;;;;;4212986;28;20836;-82
2021/07/06 09:26:13;;;;;;;4.90;3.47;;;23.50;98.30;;;;;;4211548;28;20462;-82
2021/07/06 09:28:22;;;;;;;3.43;3.13;;;23.40;98.30;;;;;;4212416;28;20968;-81
2021/07/06 09:30:26;;;;;;;4.53;3.33;;;23.30;98.30;;;;;;4214643;28;20493;-82
2021/07/06 09:32:29;;;;;;;5.23;4.50;;;23.20;98.30;;;;;;4213131;28;20480;-81
2021/07/06 09:34:33;;;;;;;4.43;3.60;;;23.20;98.30;;;;;;4214648;28;20478;-82
2021/07/06 09:36:42;;;;;;;4.70;3.20;;;23.20;98.30;;;;;;4213393;28;20817;-81
2021/07/06 09:38:59;;;;;;;3.60;3.30;;;23.20;98.30;;;;;;4214292;28;20484;-82
2021/07/06 09:41:02;;;;;;;6.40;3.67;;;23.50;98.30;;;;;;4215776;28;20478;-81
2021/07/06 09:43:21;;;;;;;4.00;3.60;;;23.60;98.30;;;;;;4216107;28;20825;-82
2021/07/06 09:45:27;;;;;;;5.23;3.80;;;23.70;98.30;;;;;;4217335;28;20497;-82
2021/07/06 09:47:30;;;;;;;5.80;3.50;;;23.90;98.30;;;;;;4216748;28;20470;-82
2021/07/06 09:49:35;;;;;;;3.70;3.40;;;23.90;98.30;;;;;;4214913;28;21234;-82
2021/07/06 09:51:39;;;;;;;4.23;3.83;;;24.00;98.30;;;;;;4214082;28;20504;-82
2021/07/06 09:53:45;;;;;;;4.60;3.40;;;24.10;98.30;;;;;;4212428;28;20486;-82
2021/07/06 09:55:47;;;;;;;4.13;3.27;;;24.20;98.30;;;;;;4215369;28;20969;-82
2021/07/06 09:57:51;;;;;;;4.43;3.20;;;24.20;98.30;;;;;;4215552;28;21056;-82
2021/07/06 10:00:07;;;;;;;5.83;3.70;;;24.40;98.30;;;;;;4213343;28;20476;-82
2021/07/06 10:02:20;;;;;;;4.30;3.50;;;24.50;98.30;;;;;;4214796;28;20465;-81
2021/07/06 10:04:25;;;;;;;4.23;3.40;;;24.90;98.30;;;;;;4214275;28;21040;-82
2021/07/06 10:06:29;;;;;;;3.60;3.20;;;25.20;98.30;;;;;;4214562;28;20493;-81
2021/07/06 10:08:32;;;;;;;4.00;3.70;;;25.30;98.30;;;;;;4213581;28;20470;-81
2021/07/06 10:10:35;;;;;;;4.23;3.20;;;25.30;98.30;;;;;;4215033;28;20486;-82
2021/07/06 10:12:40;;;;;;;3.67;3.37;;;25.30;98.30;;;;;;4214024;28;20515;-82
2021/07/06 10:14:43;;;;;;;4.57;3.60;;;25.20;98.30;;;;;;4216005;28;20494;-81
2021/07/06 10:16:48;;;;;;;7.80;3.30;;;25.10;98.30;;;;;;4213166;28;20469;-82
2021/07/06 10:18:51;;;;;;;5.10;3.27;;;25.10;98.30;;;;;;4212856;28;20466;-82
2021/07/06 10:20:54;;;;;;;3.33;3.00;;;25.10;98.30;;;;;;4210947;28;20469;-82
2021/07/06 10:22:59;;;;;;;3.70;2.80;;;25.10;98.30;;;;;;4215133;28;20484;-82
2021/07/06 10:25:04;;;;;;;3.10;2.80;;;25.10;98.30;;;;;;4213830;28;20540;-81
2021/07/06 10:27:13;;;;;;;3.27;2.90;;;25.20;98.30;;;;;;4218164;28;20473;-82
2021/07/06 10:29:32;;;;;;;3.67;3.37;;;25.20;98.30;;;;;;4215512;28;20480;-81
2021/07/06 10:31:43;;;;;;;3.60;2.90;;;25.10;98.30;;;;;;4218332;28;20881;-82
